sensor_id;sensor_type;location;lat;lon;timestamp;P1;durP1;ratioP1;P2;durP2;ratioP2
77591;SDS011;66891;46.884;17.436;2024-02-23T00:01:13;6.43;;;1.27;;
77591;SDS011;66891;46.884;17.436;2024-02-23T00:03:41;6.95;;;1.90;;
77591;SDS011;66891;46.884;17.436;2024-02-23T00:06:08;6.73;;;1.60;;
77591;SDS011;66891;46.884;17.436;2024-02-23T00:08:36;6.78;;;1.38;;
77591;SDS011;66891;46.884;17.436;2024-02-23T00:11:05;6.45;;;1.02;;
77591;SDS011;66891;46.884;17.436;2024-02-23T00:13:33;7.25;;;1.20;;
77591;SDS011;66891;46.884;17.436;2024-02-23T00:16:01;6.28;;;1.13;;
77591;SDS011;66891;46.884;17.436;2024-02-23T00:18:28;6.27;;;1.23;;
77591;SDS011;66891;46.884;17.436;2024-02-23T00:20:57;7.68;;;1.40;;
77591;SDS011;66891;46.884;17.436;2024-02-23T00:23:26;6.70;;;1.00;;
77591;SDS011;66891;46.884;17.436;2024-02-23T00:25:53;5.15;;;1.05;;
77591;SDS011;66891;46.884;17.436;2024-02-23T00:28:19;7.47;;;1.40;;
77591;SDS011;66891;46.884;17.436;2024-02-23T00:30:47;5.80;;;1.20;;
77591;SDS011;66891;46.884;17.436;2024-02-23T00:33:15;6.95;;;1.60;;
77591;SDS011;66891;46.884;17.436;2024-02-23T00:35:42;6.80;;;1.33;;
77591;SDS011;66891;46.884;17.436;2024-02-23T00:38:09;5.57;;;1.08;;
77591;SDS011;66891;46.884;17.436;2024-02-23T00:40:36;6.40;;;1.30;;
77591;SDS011;66891;46.884;17.436;2024-02-23T00:43:03;5.77;;;1.30;;
77591;SDS011;66891;46.884;17.436;2024-02-23T00:45:30;5.18;;;1.00;;
77591;SDS011;66891;46.884;17.436;2024-02-23T00:47:57;6.00;;;1.58;;
77591;SDS011;66891;46.884;17.436;2024-02-23T00:50:26;6.43;;;1.20;;
77591;SDS011;66891;46.884;17.436;2024-02-23T00:52:54;7.03;;;1.40;;
77591;SDS011;66891;46.884;17.436;2024-02-23T00:55:21;6.50;;;1.30;;
77591;SDS011;66891;46.884;17.436;2024-02-23T00:57:48;7.43;;;1.42;;
77591;SDS011;66891;46.884;17.436;2024-02-23T01:00:15;7.13;;;1.33;;
77591;SDS011;66891;46.884;17.436;2024-02-23T01:02:42;6.93;;;1.30;;
77591;SDS011;66891;46.884;17.436;2024-02-23T01:05:09;6.35;;;0.98;;
77591;SDS011;66891;46.884;17.436;2024-02-23T01:07:38;6.83;;;1.00;;
77591;SDS011;66891;46.884;17.436;2024-02-23T01:10:06;4.95;;;0.95;;
77591;SDS011;66891;46.884;17.436;2024-02-23T01:12:35;5.70;;;0.93;;
77591;SDS011;66891;46.884;17.436;2024-02-23T01:15:02;5.50;;;1.10;;
77591;SDS011;66891;46.884;17.436;2024-02-23T01:17:31;7.07;;;1.15;;
77591;SDS011;66891;46.884;17.436;2024-02-23T01:19:59;5.80;;;1.20;;
77591;SDS011;66891;46.884;17.436;2024-02-23T01:22:26;6.65;;;1.20;;
77591;SDS011;66891;46.884;17.436;2024-02-23T01:24:54;6.47;;;1.27;;
77591;SDS011;66891;46.884;17.436;2024-02-23T01:27:21;6.18;;;1.10;;
77591;SDS011;66891;46.884;17.436;2024-02-23T01:29:48;5.25;;;1.10;;
77591;SDS011;66891;46.884;17.436;2024-02-23T01:32:15;5.43;;;1.10;;
77591;SDS011;66891;46.884;17.436;2024-02-23T01:34:45;5.55;;;0.90;;
77591;SDS011;66891;46.884;17.436;2024-02-23T01:37:12;6.80;;;1.08;;
77591;SDS011;66891;46.884;17.436;2024-02-23T01:39:38;5.40;;;1.10;;
77591;SDS011;66891;46.884;17.436;2024-02-23T01:42:07;6.22;;;1.00;;
77591;SDS011;66891;46.884;17.436;2024-02-23T01:44:34;5.50;;;0.90;;
77591;SDS011;66891;46.884;17.436;2024-02-23T01:47:02;6.25;;;1.02;;
77591;SDS011;66891;46.884;17.436;2024-02-23T01:49:29;5.82;;;0.70;;
77591;SDS011;66891;46.884;17.436;2024-02-23T01:51:58;5.80;;;0.82;;
77591;SDS011;66891;46.884;17.436;2024-02-23T01:54:26;4.88;;;0.75;;
77591;SDS011;66891;46.884;17.436;2024-02-23T01:56:54;5.67;;;0.70;;
77591;SDS011;66891;46.884;17.436;2024-02-23T01:59:24;4.35;;;0.60;;
77591;SDS011;66891;46.884;17.436;2024-02-23T02:01:52;4.70;;;0.63;;
77591;SDS011;66891;46.884;17.436;2024-02-23T02:04:19;4.45;;;0.65;;
77591;SDS011;66891;46.884;17.436;2024-02-23T02:06:46;5.18;;;0.70;;
77591;SDS011;66891;46.884;17.436;2024-02-23T02:09:14;5.50;;;0.80;;
77591;SDS011;66891;46.884;17.436;2024-02-23T02:11:45;4.40;;;0.60;;
77591;SDS011;66891;46.884;17.436;2024-02-23T02:14:13;5.30;;;0.80;;
77591;SDS011;66891;46.884;17.436;2024-02-23T02:16:41;4.70;;;0.55;;
77591;SDS011;66891;46.884;17.436;2024-02-23T02:19:10;4.68;;;0.50;;
77591;SDS011;66891;46.884;17.436;2024-02-23T02:21:38;8.53;;;0.40;;
77591;SDS011;66891;46.884;17.436;2024-02-23T02:24:06;3.95;;;0.43;;
77591;SDS011;66891;46.884;17.436;2024-02-23T02:26:34;4.57;;;0.50;;
77591;SDS011;66891;46.884;17.436;2024-02-23T02:29:02;3.30;;;0.40;;
77591;SDS011;66891;46.884;17.436;2024-02-23T02:31:32;6.05;;;0.60;;
77591;SDS011;66891;46.884;17.436;2024-02-23T02:34:05;4.00;;;0.40;;
77591;SDS011;66891;46.884;17.436;2024-02-23T02:36:32;4.22;;;0.40;;
77591;SDS011;66891;46.884;17.436;2024-02-23T02:38:59;3.88;;;0.40;;
77591;SDS011;66891;46.884;17.436;2024-02-23T02:41:27;4.05;;;0.50;;
77591;SDS011;66891;46.884;17.436;2024-02-23T02:43:55;3.75;;;0.45;;
77591;SDS011;66891;46.884;17.436;2024-02-23T02:46:26;3.20;;;0.30;;
77591;SDS011;66891;46.884;17.436;2024-02-23T02:48:53;5.25;;;0.50;;
77591;SDS011;66891;46.884;17.436;2024-02-23T02:51:21;3.78;;;0.32;;
77591;SDS011;66891;46.884;17.436;2024-02-23T02:53:48;4.13;;;0.30;;
77591;SDS011;66891;46.884;17.436;2024-02-23T02:56:15;3.58;;;0.35;;
77591;SDS011;66891;46.884;17.436;2024-02-23T02:58:42;2.67;;;0.37;;
77591;SDS011;66891;46.884;17.436;2024-02-23T03:01:09;4.00;;;0.45;;
77591;SDS011;66891;46.884;17.436;2024-02-23T03:03:36;2.42;;;0.30;;
77591;SDS011;66891;46.884;17.436;2024-02-23T03:06:03;2.88;;;0.20;;
77591;SDS011;66891;46.884;17.436;2024-02-23T03:08:32;2.17;;;0.20;;
77591;SDS011;66891;46.884;17.436;2024-02-23T03:10:59;2.87;;;0.20;;
77591;SDS011;66891;46.884;17.436;2024-02-23T03:13:26;1.63;;;0.20;;
77591;SDS011;66891;46.884;17.436;2024-02-23T03:15:53;2.90;;;0.20;;
77591;SDS011;66891;46.884;17.436;2024-02-23T03:18:20;1.70;;;0.20;;
77591;SDS011;66891;46.884;17.436;2024-02-23T03:20:47;2.25;;;0.20;;
77591;SDS011;66891;46.884;17.436;2024-02-23T03:23:14;2.67;;;0.30;;
77591;SDS011;66891;46.884;17.436;2024-02-23T03:25:43;3.05;;;0.40;;
77591;SDS011;66891;46.884;17.436;2024-02-23T03:28:11;1.98;;;0.20;;
77591;SDS011;66891;46.884;17.436;2024-02-23T03:30:39;1.95;;;0.20;;
77591;SDS011;66891;46.884;17.436;2024-02-23T03:33:06;2.47;;;0.20;;
77591;SDS011;66891;46.884;17.436;2024-02-23T03:35:34;2.87;;;0.20;;
77591;SDS011;66891;46.884;17.436;2024-02-23T03:38:01;3.05;;;0.20;;
77591;SDS011;66891;46.884;17.436;2024-02-23T03:40:28;1.98;;;0.20;;
77591;SDS011;66891;46.884;17.436;2024-02-23T03:42:57;2.05;;;0.20;;
77591;SDS011;66891;46.884;17.436;2024-02-23T03:45:24;1.73;;;0.20;;
77591;SDS011;66891;46.884;17.436;2024-02-23T03:47:51;1.80;;;0.10;;
77591;SDS011;66891;46.884;17.436;2024-02-23T03:50:18;2.05;;;0.20;;
77591;SDS011;66891;46.884;17.436;2024-02-23T03:52:45;1.13;;;0.10;;
77591;SDS011;66891;46.884;17.436;2024-02-23T03:55:13;2.10;;;0.15;;
77591;SDS011;66891;46.884;17.436;2024-02-23T03:57:40;1.50;;;0.10;;
77591;SDS011;66891;46.884;17.436;2024-02-23T04:00:11;1.93;;;0.10;;
77591;SDS011;66891;46.884;17.436;2024-02-23T04:02:38;1.42;;;0.10;;
77591;SDS011;66891;46.884;17.436;2024-02-23T04:05:05;1.00;;;0.10;;
77591;SDS011;66891;46.884;17.436;2024-02-23T04:07:33;1.80;;;0.15;;
77591;SDS011;66891;46.884;17.436;2024-02-23T04:10:00;2.00;;;0.20;;
77591;SDS011;66891;46.884;17.436;2024-02-23T04:12:27;1.90;;;0.20;;
77591;SDS011;66891;46.884;17.436;2024-02-23T04:14:54;2.00;;;0.20;;
77591;SDS011;66891;46.884;17.436;2024-02-23T04:17:22;2.05;;;0.20;;
77591;SDS011;66891;46.884;17.436;2024-02-23T04:19:49;2.33;;;0.13;;
77591;SDS011;66891;46.884;17.436;2024-02-23T04:22:17;1.70;;;0.13;;
77591;SDS011;66891;46.884;17.436;2024-02-23T04:24:44;1.30;;;0.10;;
77591;SDS011;66891;46.884;17.436;2024-02-23T04:27:11;1.33;;;0.10;;
77591;SDS011;66891;46.884;17.436;2024-02-23T04:29:38;1.15;;;0.20;;
77591;SDS011;66891;46.884;17.436;2024-02-23T04:32:05;1.77;;;0.20;;
77591;SDS011;66891;46.884;17.436;2024-02-23T04:34:33;1.75;;;0.20;;
77591;SDS011;66891;46.884;17.436;2024-02-23T04:37:01;2.07;;;0.20;;
77591;SDS011;66891;46.884;17.436;2024-02-23T04:39:28;3.25;;;0.30;;
77591;SDS011;66891;46.884;17.436;2024-02-23T04:41:55;1.42;;;0.10;;
77591;SDS011;66891;46.884;17.436;2024-02-23T04:44:22;3.60;;;0.43;;
77591;SDS011;66891;46.884;17.436;2024-02-23T04:46:49;2.92;;;0.30;;
77591;SDS011;66891;46.884;17.436;2024-02-23T04:49:16;1.20;;;0.20;;
77591;SDS011;66891;46.884;17.436;2024-02-23T04:51:45;2.45;;;0.30;;
77591;SDS011;66891;46.884;17.436;2024-02-23T04:54:12;7.40;;;1.30;;
77591;SDS011;66891;46.884;17.436;2024-02-23T04:56:39;7.18;;;1.20;;
77591;SDS011;66891;46.884;17.436;2024-02-23T04:59:06;3.45;;;0.20;;
77591;SDS011;66891;46.884;17.436;2024-02-23T05:01:35;4.50;;;0.50;;
77591;SDS011;66891;46.884;17.436;2024-02-23T05:04:02;4.00;;;0.40;;
77591;SDS011;66891;46.884;17.436;2024-02-23T05:06:29;2.50;;;0.30;;
77591;SDS011;66891;46.884;17.436;2024-02-23T05:08:58;4.70;;;0.20;;
77591;SDS011;66891;46.884;17.436;2024-02-23T05:11:25;1.48;;;0.10;;
77591;SDS011;66891;46.884;17.436;2024-02-23T05:13:52;2.20;;;0.20;;
77591;SDS011;66891;46.884;17.436;2024-02-23T05:16:19;3.72;;;0.20;;
77591;SDS011;66891;46.884;17.436;2024-02-23T05:18:46;2.38;;;0.20;;
77591;SDS011;66891;46.884;17.436;2024-02-23T05:21:14;1.88;;;0.20;;
77591;SDS011;66891;46.884;17.436;2024-02-23T05:23:41;1.63;;;0.20;;
77591;SDS011;66891;46.884;17.436;2024-02-23T05:26:09;1.50;;;0.20;;
77591;SDS011;66891;46.884;17.436;2024-02-23T05:28:37;2.20;;;0.20;;
77591;SDS011;66891;46.884;17.436;2024-02-23T05:31:05;2.05;;;0.20;;
77591;SDS011;66891;46.884;17.436;2024-02-23T05:33:32;1.70;;;0.20;;
77591;SDS011;66891;46.884;17.436;2024-02-23T05:35:59;2.10;;;0.30;;
77591;SDS011;66891;46.884;17.436;2024-02-23T05:38:26;2.17;;;0.20;;
77591;SDS011;66891;46.884;17.436;2024-02-23T05:40:53;2.15;;;0.20;;
77591;SDS011;66891;46.884;17.436;2024-02-23T05:43:21;2.47;;;0.20;;
77591;SDS011;66891;46.884;17.436;2024-02-23T05:45:48;1.17;;;0.20;;
77591;SDS011;66891;46.884;17.436;2024-02-23T05:48:16;1.73;;;0.20;;
77591;SDS011;66891;46.884;17.436;2024-02-23T05:50:45;3.83;;;0.40;;
77591;SDS011;66891;46.884;17.436;2024-02-23T05:53:12;5.38;;;0.55;;
77591;SDS011;66891;46.884;17.436;2024-02-23T05:55:39;1.77;;;0.20;;
77591;SDS011;66891;46.884;17.436;2024-02-23T05:58:06;3.53;;;0.40;;
77591;SDS011;66891;46.884;17.436;2024-02-23T06:00:35;3.50;;;0.30;;
77591;SDS011;66891;46.884;17.436;2024-02-23T06:03:02;2.27;;;0.20;;
77591;SDS011;66891;46.884;17.436;2024-02-23T06:05:29;1.70;;;0.20;;
77591;SDS011;66891;46.884;17.436;2024-02-23T06:07:57;1.77;;;0.20;;
77591;SDS011;66891;46.884;17.436;2024-02-23T06:10:24;3.75;;;0.50;;
77591;SDS011;66891;46.884;17.436;2024-02-23T06:12:51;2.28;;;0.20;;
77591;SDS011;66891;46.884;17.436;2024-02-23T06:15:22;2.37;;;0.20;;
77591;SDS011;66891;46.884;17.436;2024-02-23T06:17:50;2.85;;;0.20;;
77591;SDS011;66891;46.884;17.436;2024-02-23T06:20:18;3.05;;;0.30;;
77591;SDS011;66891;46.884;17.436;2024-02-23T06:22:46;5.25;;;1.50;;
77591;SDS011;66891;46.884;17.436;2024-02-23T06:25:13;3.80;;;0.55;;
77591;SDS011;66891;46.884;17.436;2024-02-23T06:27:43;2.57;;;0.30;;
77591;SDS011;66891;46.884;17.436;2024-02-23T06:30:10;3.90;;;0.30;;
77591;SDS011;66891;46.884;17.436;2024-02-23T06:32:37;5.68;;;0.57;;
77591;SDS011;66891;46.884;17.436;2024-02-23T06:35:06;5.18;;;0.60;;
77591;SDS011;66891;46.884;17.436;2024-02-23T06:37:34;3.97;;;0.40;;
77591;SDS011;66891;46.884;17.436;2024-02-23T06:40:01;2.93;;;0.30;;
77591;SDS011;66891;46.884;17.436;2024-02-23T06:42:28;3.83;;;0.30;;
77591;SDS011;66891;46.884;17.436;2024-02-23T06:44:55;2.65;;;0.30;;
77591;SDS011;66891;46.884;17.436;2024-02-23T06:47:22;5.80;;;0.60;;
77591;SDS011;66891;46.884;17.436;2024-02-23T06:49:49;5.22;;;0.50;;
77591;SDS011;66891;46.884;17.436;2024-02-23T06:52:18;3.53;;;0.30;;
77591;SDS011;66891;46.884;17.436;2024-02-23T06:54:45;3.97;;;0.45;;
77591;SDS011;66891;46.884;17.436;2024-02-23T06:57:14;4.50;;;0.50;;
77591;SDS011;66891;46.884;17.436;2024-02-23T06:59:41;4.20;;;0.85;;
77591;SDS011;66891;46.884;17.436;2024-02-23T07:02:07;5.13;;;0.77;;
77591;SDS011;66891;46.884;17.436;2024-02-23T07:04:34;5.77;;;1.00;;
77591;SDS011;66891;46.884;17.436;2024-02-23T07:07:01;5.72;;;0.75;;
77591;SDS011;66891;46.884;17.436;2024-02-23T07:09:35;4.18;;;0.82;;
77591;SDS011;66891;46.884;17.436;2024-02-23T07:12:03;4.38;;;0.30;;
77591;SDS011;66891;46.884;17.436;2024-02-23T07:14:30;4.05;;;0.40;;
77591;SDS011;66891;46.884;17.436;2024-02-23T07:16:57;4.03;;;0.57;;
77591;SDS011;66891;46.884;17.436;2024-02-23T07:19:24;6.80;;;0.90;;
77591;SDS011;66891;46.884;17.436;2024-02-23T07:21:52;4.63;;;0.40;;
77591;SDS011;66891;46.884;17.436;2024-02-23T07:24:19;3.42;;;0.40;;
77591;SDS011;66891;46.884;17.436;2024-02-23T07:26:47;3.50;;;0.40;;
77591;SDS011;66891;46.884;17.436;2024-02-23T07:29:14;3.80;;;0.50;;
77591;SDS011;66891;46.884;17.436;2024-02-23T07:31:44;5.20;;;0.82;;
77591;SDS011;66891;46.884;17.436;2024-02-23T07:34:12;8.05;;;1.95;;
77591;SDS011;66891;46.884;17.436;2024-02-23T07:36:39;7.90;;;1.63;;
77591;SDS011;66891;46.884;17.436;2024-02-23T07:39:06;6.95;;;1.23;;
77591;SDS011;66891;46.884;17.436;2024-02-23T07:41:33;5.13;;;0.40;;
77591;SDS011;66891;46.884;17.436;2024-02-23T07:44:02;3.85;;;0.30;;
77591;SDS011;66891;46.884;17.436;2024-02-23T07:46:30;2.95;;;0.32;;
77591;SDS011;66891;46.884;17.436;2024-02-23T07:48:57;4.35;;;0.40;;
77591;SDS011;66891;46.884;17.436;2024-02-23T07:51:27;3.00;;;0.35;;
77591;SDS011;66891;46.884;17.436;2024-02-23T07:53:55;6.10;;;1.07;;
77591;SDS011;66891;46.884;17.436;2024-02-23T07:56:22;8.00;;;2.20;;
77591;SDS011;66891;46.884;17.436;2024-02-23T07:58:52;6.10;;;1.38;;
77591;SDS011;66891;46.884;17.436;2024-02-23T08:01:21;5.00;;;0.52;;
77591;SDS011;66891;46.884;17.436;2024-02-23T08:03:48;4.10;;;0.50;;
77591;SDS011;66891;46.884;17.436;2024-02-23T08:06:15;3.27;;;0.33;;
77591;SDS011;66891;46.884;17.436;2024-02-23T08:08:42;4.28;;;0.38;;
77591;SDS011;66891;46.884;17.436;2024-02-23T08:11:10;3.88;;;0.40;;
77591;SDS011;66891;46.884;17.436;2024-02-23T08:13:37;6.03;;;0.80;;
77591;SDS011;66891;46.884;17.436;2024-02-23T08:16:04;4.05;;;0.50;;
77591;SDS011;66891;46.884;17.436;2024-02-23T08:18:34;5.03;;;0.80;;
77591;SDS011;66891;46.884;17.436;2024-02-23T08:21:01;4.47;;;0.60;;
77591;SDS011;66891;46.884;17.436;2024-02-23T08:23:29;5.28;;;0.95;;
77591;SDS011;66891;46.884;17.436;2024-02-23T08:25:57;4.22;;;0.80;;
77591;SDS011;66891;46.884;17.436;2024-02-23T08:28:25;4.07;;;0.40;;
77591;SDS011;66891;46.884;17.436;2024-02-23T08:30:52;4.50;;;0.60;;
77591;SDS011;66891;46.884;17.436;2024-02-23T08:33:20;4.95;;;0.70;;
77591;SDS011;66891;46.884;17.436;2024-02-23T08:35:48;5.75;;;1.05;;
77591;SDS011;66891;46.884;17.436;2024-02-23T08:38:20;4.88;;;0.88;;
77591;SDS011;66891;46.884;17.436;2024-02-23T08:40:49;4.50;;;0.68;;
77591;SDS011;66891;46.884;17.436;2024-02-23T08:43:17;5.73;;;0.60;;
77591;SDS011;66891;46.884;17.436;2024-02-23T08:45:44;5.25;;;0.70;;
77591;SDS011;66891;46.884;17.436;2024-02-23T08:48:12;5.57;;;0.90;;
77591;SDS011;66891;46.884;17.436;2024-02-23T08:50:45;5.88;;;1.00;;
77591;SDS011;66891;46.884;17.436;2024-02-23T08:53:16;7.72;;;0.90;;
77591;SDS011;66891;46.884;17.436;2024-02-23T08:55:44;5.30;;;0.90;;
77591;SDS011;66891;46.884;17.436;2024-02-23T08:58:11;5.93;;;0.88;;
77591;SDS011;66891;46.884;17.436;2024-02-23T09:00:40;6.88;;;1.15;;
77591;SDS011;66891;46.884;17.436;2024-02-23T09:03:07;7.65;;;1.42;;
77591;SDS011;66891;46.884;17.436;2024-02-23T09:05:34;6.50;;;1.85;;
77591;SDS011;66891;46.884;17.436;2024-02-23T09:08:01;6.93;;;1.37;;
77591;SDS011;66891;46.884;17.436;2024-02-23T09:10:30;5.18;;;0.90;;
77591;SDS011;66891;46.884;17.436;2024-02-23T09:12:57;5.35;;;1.10;;
77591;SDS011;66891;46.884;17.436;2024-02-23T09:15:27;6.88;;;1.25;;
77591;SDS011;66891;46.884;17.436;2024-02-23T09:17:55;5.30;;;0.90;;
77591;SDS011;66891;46.884;17.436;2024-02-23T09:20:22;4.80;;;0.70;;
77591;SDS011;66891;46.884;17.436;2024-02-23T09:22:53;4.88;;;0.77;;
77591;SDS011;66891;46.884;17.436;2024-02-23T09:25:20;3.75;;;0.50;;
77591;SDS011;66891;46.884;17.436;2024-02-23T09:27:56;6.22;;;0.70;;
77591;SDS011;66891;46.884;17.436;2024-02-23T09:30:23;4.05;;;0.40;;
77591;SDS011;66891;46.884;17.436;2024-02-23T09:32:50;4.70;;;0.60;;
77591;SDS011;66891;46.884;17.436;2024-02-23T09:35:20;12.20;;;3.55;;
77591;SDS011;66891;46.884;17.436;2024-02-23T09:37:50;4.80;;;0.60;;
77591;SDS011;66891;46.884;17.436;2024-02-23T09:40:18;5.30;;;0.73;;
77591;SDS011;66891;46.884;17.436;2024-02-23T09:42:46;6.72;;;1.42;;
77591;SDS011;66891;46.884;17.436;2024-02-23T09:45:16;8.30;;;1.13;;
77591;SDS011;66891;46.884;17.436;2024-02-23T09:47:44;5.85;;;0.63;;
77591;SDS011;66891;46.884;17.436;2024-02-23T09:50:11;3.45;;;0.40;;
77591;SDS011;66891;46.884;17.436;2024-02-23T09:52:42;7.43;;;1.52;;
77591;SDS011;66891;46.884;17.436;2024-02-23T09:55:09;6.70;;;1.20;;
77591;SDS011;66891;46.884;17.436;2024-02-23T09:57:37;51.10;;;3.50;;
77591;SDS011;66891;46.884;17.436;2024-02-23T10:00:06;11.32;;;1.20;;
77591;SDS011;66891;46.884;17.436;2024-02-23T10:02:34;7.20;;;1.45;;
77591;SDS011;66891;46.884;17.436;2024-02-23T10:05:03;9.65;;;1.27;;
77591;SDS011;66891;46.884;17.436;2024-02-23T10:07:33;8.65;;;1.27;;
77591;SDS011;66891;46.884;17.436;2024-02-23T10:10:01;4.97;;;0.60;;
77591;SDS011;66891;46.884;17.436;2024-02-23T10:12:28;5.45;;;0.90;;
77591;SDS011;66891;46.884;17.436;2024-02-23T10:14:58;5.68;;;0.88;;
77591;SDS011;66891;46.884;17.436;2024-02-23T10:17:31;5.00;;;1.00;;
77591;SDS011;66891;46.884;17.436;2024-02-23T10:20:03;6.03;;;0.98;;
77591;SDS011;66891;46.884;17.436;2024-02-23T10:22:33;7.97;;;1.80;;
77591;SDS011;66891;46.884;17.436;2024-02-23T10:25:04;6.95;;;1.95;;
77591;SDS011;66891;46.884;17.436;2024-02-23T10:27:31;10.82;;;2.92;;
77591;SDS011;66891;46.884;17.436;2024-02-23T10:29:59;8.65;;;2.45;;
77591;SDS011;66891;46.884;17.436;2024-02-23T10:32:27;8.70;;;1.70;;
77591;SDS011;66891;46.884;17.436;2024-02-23T10:34:56;9.07;;;3.63;;
77591;SDS011;66891;46.884;17.436;2024-02-23T10:37:28;9.85;;;2.50;;
77591;SDS011;66891;46.884;17.436;2024-02-23T10:39:57;8.40;;;2.25;;
77591;SDS011;66891;46.884;17.436;2024-02-23T10:42:25;6.07;;;1.30;;
77591;SDS011;66891;46.884;17.436;2024-02-23T10:44:54;6.30;;;1.27;;
77591;SDS011;66891;46.884;17.436;2024-02-23T10:47:25;7.13;;;0.83;;
77591;SDS011;66891;46.884;17.436;2024-02-23T10:49:52;7.90;;;1.80;;
77591;SDS011;66891;46.884;17.436;2024-02-23T10:52:20;7.28;;;1.67;;
77591;SDS011;66891;46.884;17.436;2024-02-23T10:54:52;9.00;;;2.15;;
77591;SDS011;66891;46.884;17.436;2024-02-23T10:57:20;8.95;;;1.90;;
77591;SDS011;66891;46.884;17.436;2024-02-23T10:59:48;7.20;;;1.50;;
77591;SDS011;66891;46.884;17.436;2024-02-23T11:02:17;7.05;;;1.20;;
77591;SDS011;66891;46.884;17.436;2024-02-23T11:04:45;6.43;;;1.40;;
77591;SDS011;66891;46.884;17.436;2024-02-23T11:07:14;7.28;;;1.60;;
77591;SDS011;66891;46.884;17.436;2024-02-23T11:09:43;9.00;;;1.80;;
77591;SDS011;66891;46.884;17.436;2024-02-23T11:12:21;18.87;;;6.20;;
77591;SDS011;66891;46.884;17.436;2024-02-23T11:14:49;9.32;;;2.53;;
77591;SDS011;66891;46.884;17.436;2024-02-23T11:17:17;7.22;;;1.70;;
77591;SDS011;66891;46.884;17.436;2024-02-23T11:19:49;7.38;;;1.40;;
77591;SDS011;66891;46.884;17.436;2024-02-23T11:22:23;6.50;;;1.10;;
77591;SDS011;66891;46.884;17.436;2024-02-23T11:25:02;7.47;;;1.47;;
77591;SDS011;66891;46.884;17.436;2024-02-23T11:27:31;7.30;;;1.40;;
77591;SDS011;66891;46.884;17.436;2024-02-23T11:29:59;9.18;;;3.53;;
77591;SDS011;66891;46.884;17.436;2024-02-23T11:32:36;12.27;;;4.95;;
77591;SDS011;66891;46.884;17.436;2024-02-23T11:35:05;13.50;;;5.18;;
77591;SDS011;66891;46.884;17.436;2024-02-23T11:37:33;12.10;;;5.03;;
77591;SDS011;66891;46.884;17.436;2024-02-23T11:40:13;13.23;;;5.80;;
77591;SDS011;66891;46.884;17.436;2024-02-23T11:42:48;7.50;;;2.00;;
77591;SDS011;66891;46.884;17.436;2024-02-23T11:45:18;9.38;;;2.20;;
77591;SDS011;66891;46.884;17.436;2024-02-23T11:47:49;8.57;;;2.85;;
77591;SDS011;66891;46.884;17.436;2024-02-23T11:50:17;8.33;;;1.57;;
77591;SDS011;66891;46.884;17.436;2024-02-23T11:52:49;7.75;;;2.00;;
77591;SDS011;66891;46.884;17.436;2024-02-23T11:55:18;7.80;;;2.13;;
77591;SDS011;66891;46.884;17.436;2024-02-23T11:57:49;7.68;;;1.92;;
77591;SDS011;66891;46.884;17.436;2024-02-23T12:00:27;7.93;;;2.60;;
77591;SDS011;66891;46.884;17.436;2024-02-23T12:02:57;7.40;;;1.97;;
77591;SDS011;66891;46.884;17.436;2024-02-23T12:05:30;7.55;;;2.10;;
77591;SDS011;66891;46.884;17.436;2024-02-23T12:08:07;7.70;;;2.30;;
77591;SDS011;66891;46.884;17.436;2024-02-23T12:10:35;6.68;;;1.58;;
77591;SDS011;66891;46.884;17.436;2024-02-23T12:13:07;9.27;;;2.50;;
77591;SDS011;66891;46.884;17.436;2024-02-23T12:15:35;7.33;;;2.30;;
77591;SDS011;66891;46.884;17.436;2024-02-23T12:18:06;7.72;;;2.03;;
77591;SDS011;66891;46.884;17.436;2024-02-23T12:20:33;7.03;;;1.92;;
77591;SDS011;66891;46.884;17.436;2024-02-23T12:23:03;8.63;;;1.80;;
77591;SDS011;66891;46.884;17.436;2024-02-23T12:25:31;8.18;;;1.52;;
77591;SDS011;66891;46.884;17.436;2024-02-23T12:28:09;7.50;;;1.83;;
77591;SDS011;66891;46.884;17.436;2024-02-23T12:30:39;8.40;;;2.17;;
77591;SDS011;66891;46.884;17.436;2024-02-23T12:33:08;8.55;;;2.40;;
77591;SDS011;66891;46.884;17.436;2024-02-23T12:35:36;8.85;;;2.50;;
77591;SDS011;66891;46.884;17.436;2024-02-23T12:38:05;15.48;;;4.85;;
77591;SDS011;66891;46.884;17.436;2024-02-23T12:40:35;14.83;;;4.73;;
77591;SDS011;66891;46.884;17.436;2024-02-23T12:43:04;10.32;;;3.40;;
77591;SDS011;66891;46.884;17.436;2024-02-23T12:45:33;7.63;;;2.50;;
77591;SDS011;66891;46.884;17.436;2024-02-23T12:48:02;8.55;;;2.13;;
77591;SDS011;66891;46.884;17.436;2024-02-23T12:50:32;7.55;;;2.40;;
77591;SDS011;66891;46.884;17.436;2024-02-23T12:53:00;8.97;;;2.50;;
77591;SDS011;66891;46.884;17.436;2024-02-23T12:55:28;9.10;;;3.08;;
77591;SDS011;66891;46.884;17.436;2024-02-23T12:57:55;8.88;;;2.90;;
77591;SDS011;66891;46.884;17.436;2024-02-23T13:00:24;8.93;;;2.63;;
77591;SDS011;66891;46.884;17.436;2024-02-23T13:02:57;9.05;;;2.70;;
77591;SDS011;66891;46.884;17.436;2024-02-23T13:05:24;8.57;;;3.07;;
77591;SDS011;66891;46.884;17.436;2024-02-23T13:07:53;7.35;;;2.45;;
77591;SDS011;66891;46.884;17.436;2024-02-23T13:10:22;8.38;;;2.75;;
77591;SDS011;66891;46.884;17.436;2024-02-23T13:12:56;7.55;;;2.40;;
77591;SDS011;66891;46.884;17.436;2024-02-23T13:15:23;7.00;;;2.30;;
77591;SDS011;66891;46.884;17.436;2024-02-23T13:17:54;10.40;;;2.57;;
77591;SDS011;66891;46.884;17.436;2024-02-23T13:20:21;7.65;;;2.20;;
77591;SDS011;66891;46.884;17.436;2024-02-23T13:22:49;8.43;;;2.55;;
77591;SDS011;66891;46.884;17.436;2024-02-23T13:25:16;8.05;;;2.85;;
77591;SDS011;66891;46.884;17.436;2024-02-23T13:27:44;7.38;;;2.15;;
77591;SDS011;66891;46.884;17.436;2024-02-23T13:30:11;8.33;;;2.57;;
77591;SDS011;66891;46.884;17.436;2024-02-23T13:32:39;8.02;;;2.50;;
77591;SDS011;66891;46.884;17.436;2024-02-23T13:35:08;8.60;;;3.08;;
77591;SDS011;66891;46.884;17.436;2024-02-23T13:37:36;9.20;;;2.60;;
77591;SDS011;66891;46.884;17.436;2024-02-23T13:40:03;9.52;;;3.00;;
77591;SDS011;66891;46.884;17.436;2024-02-23T13:42:32;8.70;;;2.23;;
77591;SDS011;66891;46.884;17.436;2024-02-23T13:44:59;9.30;;;3.33;;
77591;SDS011;66891;46.884;17.436;2024-02-23T13:47:26;9.40;;;2.50;;
77591;SDS011;66891;46.884;17.436;2024-02-23T13:49:54;8.75;;;2.65;;
77591;SDS011;66891;46.884;17.436;2024-02-23T13:52:22;8.38;;;3.03;;
77591;SDS011;66891;46.884;17.436;2024-02-23T13:54:49;13.63;;;4.13;;
77591;SDS011;66891;46.884;17.436;2024-02-23T13:57:16;11.10;;;4.32;;
77591;SDS011;66891;46.884;17.436;2024-02-23T13:59:45;10.35;;;4.20;;
77591;SDS011;66891;46.884;17.436;2024-02-23T14:02:11;10.18;;;3.20;;
77591;SDS011;66891;46.884;17.436;2024-02-23T14:04:39;11.07;;;3.58;;
77591;SDS011;66891;46.884;17.436;2024-02-23T14:07:06;11.60;;;4.33;;
77591;SDS011;66891;46.884;17.436;2024-02-23T14:09:34;10.23;;;4.20;;
77591;SDS011;66891;46.884;17.436;2024-02-23T14:12:02;12.65;;;5.50;;
77591;SDS011;66891;46.884;17.436;2024-02-23T14:14:29;14.95;;;6.80;;
77591;SDS011;66891;46.884;17.436;2024-02-23T14:16:56;15.57;;;6.90;;
77591;SDS011;66891;46.884;17.436;2024-02-23T14:19:23;16.27;;;6.87;;
77591;SDS011;66891;46.884;17.436;2024-02-23T14:21:51;11.10;;;4.60;;
77591;SDS011;66891;46.884;17.436;2024-02-23T14:24:18;11.60;;;4.22;;
77591;SDS011;66891;46.884;17.436;2024-02-23T14:26:47;10.38;;;3.92;;
77591;SDS011;66891;46.884;17.436;2024-02-23T14:29:14;11.25;;;3.65;;
77591;SDS011;66891;46.884;17.436;2024-02-23T14:31:41;10.70;;;3.47;;
77591;SDS011;66891;46.884;17.436;2024-02-23T14:34:09;10.48;;;3.17;;
77591;SDS011;66891;46.884;17.436;2024-02-23T14:36:36;9.88;;;3.50;;
77591;SDS011;66891;46.884;17.436;2024-02-23T14:39:03;11.02;;;3.58;;